Time;durP1;ratioP1;P1;durP2;ratioP2;P2;SDS_P1;SDS_P2;PMS_P1;PMS_P2;Temp;Humidity;BMP_temperature;BMP_pressure;BME280_temperature;BME280_humidity;BME280_pressure;Samples;Min_cycle;Max_cycle;Signal;HPM_P1;HPM_P2
2023/06/28 00:02:24;;;;;;;9.70;2.40;;;;;;;;;;5068091;28;20847;-67
2023/06/28 00:04:51;;;;;;;2.27;2.03;;;;;;;;;;5069455;28;20483;-68
2023/06/28 00:07:17;;;;;;;2.60;2.00;;;;;;;;;;5066753;28;20441;-70
2023/06/28 00:09:43;;;;;;;5.73;2.17;;;;;;;;;;5068048;28;20440;-70
2023/06/28 00:12:09;;;;;;;5.63;2.30;;;;;;;;;;5067416;28;20904;-69
2023/06/28 00:14:35;;;;;;;1.90;1.80;;;;;;;;;;5067384;28;20429;-69
2023/06/28 00:17:01;;;;;;;5.10;2.17;;;;;;;;;;5067989;28;20964;-72
2023/06/28 00:19:27;;;;;;;2.07;2.00;;;;;;;;;;5068929;28;20551;-68
2023/06/28 00:21:54;;;;;;;2.50;2.30;;;;;;;;;;5070322;28;20445;-71
2023/06/28 00:24:20;;;;;;;7.33;2.10;;;;;;;;;;5072531;28;20417;-67
2023/06/28 00:26:46;;;;;;;2.80;2.57;;;;;;;;;;5072022;28;20417;-66
2023/06/28 00:29:12;;;;;;;1.90;1.80;;;;;;;;;;5072216;28;20421;-67
2023/06/28 00:31:38;;;;;;;2.10;1.90;;;;;;;;;;5071514;28;20511;-66
2023/06/28 00:34:04;;;;;;;2.00;1.90;;;;;;;;;;5072739;28;20909;-67
2023/06/28 00:36:30;;;;;;;1.50;1.50;;;;;;;;;;5070377;28;20556;-67
2023/06/28 00:38:56;;;;;;;2.30;1.80;;;;;;;;;;5072173;28;20421;-67
2023/06/28 00:41:22;;;;;;;1.77;1.63;;;;;;;;;;5070939;28;20447;-65
2023/06/28 00:43:48;;;;;;;2.33;2.13;;;;;;;;;;5071382;28;20429;-66
2023/06/28 00:46:14;;;;;;;2.87;1.57;;;;;;;;;;5071653;28;20455;-67
2023/06/28 00:48:40;;;;;;;1.93;1.83;;;;;;;;;;5071781;28;20468;-66
2023/06/28 00:51:06;;;;;;;5.70;2.07;;;;;;;;;;5070764;28;20488;-67
2023/06/28 00:53:32;;;;;;;4.17;1.80;;;;;;;;;;5070808;28;20512;-65
2023/06/28 00:55:59;;;;;;;10.53;2.23;;;;;;;;;;5052624;28;20532;-66
2023/06/28 00:58:26;;;;;;;2.10;1.80;;;;;;;;;;5070877;28;20441;-67
2023/06/28 01:00:52;;;;;;;1.93;1.83;;;;;;;;;;5071435;28;20798;-67
2023/06/28 01:03:19;;;;;;;1.90;1.60;;;;;;;;;;5069960;28;21108;-66
2023/06/28 01:05:47;;;;;;;3.03;1.70;;;;;;;;;;5051936;28;20495;-66
2023/06/28 01:08:13;;;;;;;2.17;2.00;;;;;;;;;;5070770;28;20452;-66
2023/06/28 01:10:40;;;;;;;3.20;2.10;;;;;;;;;;5070496;28;20499;-68
2023/06/28 01:13:06;;;;;;;1.80;1.80;;;;;;;;;;5070485;28;20425;-67
2023/06/28 01:15:32;;;;;;;6.27;1.70;;;;;;;;;;5071621;28;20417;-66
2023/06/28 01:18:00;;;;;;;2.50;1.93;;;;;;;;;;5071170;28;20885;-67
2023/06/28 01:20:30;;;;;;;1.77;1.67;;;;;;;;;;5070612;28;20441;-66
2023/06/28 01:22:56;;;;;;;1.80;1.80;;;;;;;;;;5052790;28;20433;-67
2023/06/28 01:25:22;;;;;;;2.43;1.80;;;;;;;;;;5069903;28;20839;-66
2023/06/28 01:27:48;;;;;;;1.97;1.83;;;;;;;;;;5071226;28;20426;-66
2023/06/28 01:30:15;;;;;;;5.00;2.40;;;;;;;;;;5071148;28;20915;-67
2023/06/28 01:32:42;;;;;;;2.17;2.00;;;;;;;;;;5070067;28;20437;-67
2023/06/28 01:35:09;;;;;;;5.27;2.77;;;;;;;;;;5070557;28;20468;-68
2023/06/28 01:37:35;;;;;;;1.93;1.83;;;;;;;;;;5069506;28;20428;-69
2023/06/28 01:40:02;;;;;;;1.90;1.80;;;;;;;;;;5052403;28;20426;-68
2023/06/28 01:42:28;;;;;;;8.73;2.50;;;;;;;;;;5070105;28;20462;-69
2023/06/28 01:44:54;;;;;;;2.03;1.93;;;;;;;;;;5070235;28;20530;-66
2023/06/28 01:47:21;;;;;;;4.03;2.10;;;;;;;;;;5070092;28;20484;-67
2023/06/28 01:49:47;;;;;;;2.00;2.00;;;;;;;;;;5067896;28;20492;-68
2023/06/28 01:52:13;;;;;;;6.00;1.73;;;;;;;;;;5070108;28;20571;-66
2023/06/28 01:54:39;;;;;;;2.20;1.90;;;;;;;;;;5068566;28;20453;-67
2023/06/28 01:57:05;;;;;;;3.10;2.10;;;;;;;;;;5052739;28;20868;-69
2023/06/28 01:59:31;;;;;;;2.63;2.43;;;;;;;;;;5069808;28;20461;-68
2023/06/28 02:01:57;;;;;;;2.30;1.63;;;;;;;;;;5070568;28;21530;-67
2023/06/28 02:04:23;;;;;;;2.23;2.20;;;;;;;;;;5048381;28;20453;-66
2023/06/28 02:06:49;;;;;;;2.23;2.17;;;;;;;;;;5069156;28;20434;-67
2023/06/28 02:09:15;;;;;;;1.93;1.80;;;;;;;;;;5067769;28;20475;-64
2023/06/28 02:11:41;;;;;;;4.20;2.00;;;;;;;;;;5070125;28;20584;-65
2023/06/28 02:14:07;;;;;;;3.07;2.03;;;;;;;;;;5069907;28;20432;-64
2023/06/28 02:16:33;;;;;;;14.77;2.13;;;;;;;;;;5069260;28;20444;-65
2023/06/28 02:19:02;;;;;;;1.97;1.87;;;;;;;;;;5068421;28;20429;-64
2023/06/28 02:21:28;;;;;;;2.07;2.00;;;;;;;;;;5068190;28;20898;-64
2023/06/28 02:23:54;;;;;;;1.93;1.83;;;;;;;;;;5069042;28;20985;-65
2023/06/28 02:26:20;;;;;;;2.40;1.67;;;;;;;;;;5070281;28;20429;-64
2023/06/28 02:28:46;;;;;;;3.60;3.10;;;;;;;;;;5068013;28;20522;-64
2023/06/28 02:31:12;;;;;;;2.50;2.27;;;;;;;;;;5069262;28;20469;-67
2023/06/28 02:33:38;;;;;;;2.17;2.07;;;;;;;;;;5068677;28;20491;-65
2023/06/28 02:36:04;;;;;;;2.30;2.17;;;;;;;;;;5069481;28;20453;-64
2023/06/28 02:38:30;;;;;;;3.80;2.50;;;;;;;;;;5068138;28;20460;-63
2023/06/28 02:40:56;;;;;;;2.67;2.47;;;;;;;;;;5069456;28;20512;-64
2023/06/28 02:43:22;;;;;;;8.50;2.47;;;;;;;;;;5068733;28;20437;-65
2023/06/28 02:45:48;;;;;;;13.93;2.47;;;;;;;;;;5068741;28;20479;-65
2023/06/28 02:48:14;;;;;;;2.03;1.93;;;;;;;;;;5068844;28;20469;-66
2023/06/28 02:50:40;;;;;;;1.83;1.80;;;;;;;;;;5050349;28;21030;-65
2023/06/28 02:53:06;;;;;;;3.90;2.70;;;;;;;;;;5069962;28;20440;-64
2023/06/28 02:55:32;;;;;;;2.90;2.70;;;;;;;;;;5068552;28;20429;-67
2023/06/28 02:57:58;;;;;;;2.13;1.87;;;;;;;;;;5068274;28;20445;-64
2023/06/28 03:00:24;;;;;;;6.07;2.10;;;;;;;;;;5068320;28;20429;-64
2023/06/28 03:02:50;;;;;;;2.40;2.23;;;;;;;;;;5050456;28;20933;-67
2023/06/28 03:05:16;;;;;;;3.23;2.27;;;;;;;;;;5069720;28;20795;-67
2023/06/28 03:07:42;;;;;;;3.03;2.13;;;;;;;;;;5067835;28;20531;-66
2023/06/28 03:10:08;;;;;;;3.43;2.40;;;;;;;;;;5068757;28;20433;-66
2023/06/28 03:12:34;;;;;;;1.93;1.80;;;;;;;;;;5069383;28;20481;-66
2023/06/28 03:15:01;;;;;;;1.70;1.60;;;;;;;;;;5066420;28;20438;-64
2023/06/28 03:17:27;;;;;;;3.23;2.60;;;;;;;;;;5067910;28;20445;-68
2023/06/28 03:19:53;;;;;;;2.10;2.00;;;;;;;;;;5068111;28;20931;-65
2023/06/28 03:22:19;;;;;;;2.47;2.37;;;;;;;;;;5069406;28;20548;-64
2023/06/28 03:24:45;;;;;;;7.73;2.10;;;;;;;;;;5068478;28;20519;-64
2023/06/28 03:27:11;;;;;;;3.90;2.07;;;;;;;;;;5069448;28;20797;-67
2023/06/28 03:29:37;;;;;;;3.10;2.23;;;;;;;;;;5066480;28;20441;-67
2023/06/28 03:32:03;;;;;;;2.10;1.87;;;;;;;;;;5069279;28;21081;-65
2023/06/28 03:34:29;;;;;;;2.00;1.90;;;;;;;;;;5068072;28;20511;-67
2023/06/28 03:36:55;;;;;;;4.50;1.60;;;;;;;;;;5067218;28;20943;-67
2023/06/28 03:39:21;;;;;;;3.10;2.70;;;;;;;;;;5068475;28;20600;-68
2023/06/28 03:41:47;;;;;;;3.13;2.37;;;;;;;;;;5067810;28;20450;-68
2023/06/28 03:44:14;;;;;;;2.40;2.30;;;;;;;;;;5068882;28;20461;-68
2023/06/28 03:46:40;;;;;;;1.83;1.77;;;;;;;;;;5068135;28;20508;-68
2023/06/28 03:49:06;;;;;;;2.47;2.00;;;;;;;;;;5068670;28;20477;-70
2023/06/28 03:51:32;;;;;;;5.90;2.23;;;;;;;;;;5049611;28;20480;-67
2023/06/28 03:53:58;;;;;;;2.03;1.93;;;;;;;;;;5050485;28;20449;-69
2023/06/28 03:56:24;;;;;;;2.07;2.07;;;;;;;;;;5064872;28;20441;-69
2023/06/28 03:58:50;;;;;;;2.73;2.10;;;;;;;;;;5069594;28;20937;-65
2023/06/28 04:01:16;;;;;;;2.60;2.40;;;;;;;;;;5071063;28;20441;-67
2023/06/28 04:03:42;;;;;;;2.37;2.27;;;;;;;;;;5071824;28;20468;-72
2023/06/28 04:06:08;;;;;;;2.93;2.17;;;;;;;;;;5072136;28;20516;-73
2023/06/28 04:08:34;;;;;;;2.43;2.13;;;;;;;;;;5052348;28;20823;-71
2023/06/28 04:11:01;;;;;;;2.30;2.20;;;;;;;;;;5070307;28;20482;-69
2023/06/28 04:13:26;;;;;;;3.53;2.33;;;;;;;;;;5072184;28;20429;-69
2023/06/28 04:15:53;;;;;;;3.00;2.90;;;;;;;;;;5070495;28;20448;-71
2023/06/28 04:18:20;;;;;;;3.23;2.67;;;;;;;;;;5070508;28;20433;-67
2023/06/28 04:20:46;;;;;;;9.77;2.17;;;;;;;;;;5071375;28;20437;-72
2023/06/28 04:23:12;;;;;;;3.80;2.43;;;;;;;;;;5071015;28;20528;-74
2023/06/28 04:25:38;;;;;;;13.27;3.30;;;;;;;;;;5051831;28;20776;-67
2023/06/28 04:28:04;;;;;;;3.00;2.90;;;;;;;;;;5071189;28;20542;-75
2023/06/28 04:30:31;;;;;;;2.70;2.37;;;;;;;;;;5071734;28;20503;-71
2023/06/28 04:32:57;;;;;;;11.23;2.73;;;;;;;;;;5053163;28;20445;-72
2023/06/28 04:35:23;;;;;;;3.77;2.57;;;;;;;;;;5069935;28;20487;-68
2023/06/28 04:37:50;;;;;;;5.23;2.07;;;;;;;;;;5069563;28;20429;-71
2023/06/28 04:40:16;;;;;;;2.80;2.53;;;;;;;;;;5070201;28;20503;-72
2023/06/28 04:42:42;;;;;;;2.60;2.33;;;;;;;;;;5050303;28;20437;-74
2023/06/28 04:45:11;;;;;;;7.23;2.17;;;;;;;;;;5070356;28;20434;-72
2023/06/28 04:47:38;;;;;;;6.50;2.20;;;;;;;;;;5070469;28;20428;-67
2023/06/28 04:50:04;;;;;;;4.33;2.30;;;;;;;;;;5070546;28;20440;-69
2023/06/28 04:52:30;;;;;;;2.33;1.87;;;;;;;;;;5068436;28;20849;-70
2023/06/28 04:54:56;;;;;;;4.10;2.60;;;;;;;;;;5070033;28;20437;-71
2023/06/28 04:57:23;;;;;;;4.30;2.60;;;;;;;;;;5068523;28;20429;-72
2023/06/28 04:59:49;;;;;;;2.93;2.70;;;;;;;;;;5044041;28;20452;-69
2023/06/28 05:02:15;;;;;;;2.20;2.10;;;;;;;;;;5069712;28;20434;-74
2023/06/28 05:04:41;;;;;;;2.20;1.97;;;;;;;;;;5069680;28;20449;-68
2023/06/28 05:07:09;;;;;;;5.43;2.07;;;;;;;;;;5068865;28;20490;-71
2023/06/28 05:09:35;;;;;;;5.07;2.53;;;;;;;;;;5070729;28;21777;-77
2023/06/28 05:12:02;;;;;;;3.60;2.70;;;;;;;;;;5052864;28;20552;-68
2023/06/28 05:14:31;;;;;;;3.27;3.10;;;;;;;;;;5069395;28;20472;-70
2023/06/28 05:16:57;;;;;;;2.30;2.20;;;;;;;;;;5051024;28;20486;-70
2023/06/28 05:19:23;;;;;;;2.07;1.90;;;;;;;;;;5070676;28;20587;-70
2023/06/28 05:21:50;;;;;;;11.53;2.00;;;;;;;;;;5069430;28;20850;-74
2023/06/28 05:24:16;;;;;;;3.33;2.50;;;;;;;;;;5067426;28;20490;-73
2023/06/28 05:26:42;;;;;;;4.53;2.40;;;;;;;;;;5048630;28;20521;-74
2023/06/28 05:29:08;;;;;;;3.13;2.77;;;;;;;;;;5069619;28;20933;-67
2023/06/28 05:31:36;;;;;;;7.43;2.10;;;;;;;;;;5070365;28;20481;-76
2023/06/28 05:34:02;;;;;;;3.37;2.70;;;;;;;;;;5069027;28;20817;-74
2023/06/28 05:36:28;;;;;;;2.30;2.20;;;;;;;;;;5051279;28;21071;-76
2023/06/28 05:38:56;;;;;;;2.13;2.03;;;;;;;;;;5070001;28;20426;-72
2023/06/28 05:41:22;;;;;;;6.13;3.03;;;;;;;;;;5068937;28;20852;-71
2023/06/28 05:43:48;;;;;;;4.43;2.10;;;;;;;;;;5069333;28;20417;-74
2023/06/28 05:46:14;;;;;;;2.07;1.97;;;;;;;;;;5068162;28;20559;-71
2023/06/28 05:48:40;;;;;;;2.87;1.47;;;;;;;;;;5069533;28;20564;-74
2023/06/28 05:51:09;;;;;;;2.60;2.50;;;;;;;;;;5070199;28;20887;-74
2023/06/28 05:53:37;;;;;;;2.20;1.90;;;;;;;;;;5051087;28;20441;-76
2023/06/28 05:56:03;;;;;;;7.07;2.07;;;;;;;;;;5069729;28;20523;-75
2023/06/28 05:58:29;;;;;;;2.73;2.53;;;;;;;;;;5069144;28;20530;-76
2023/06/28 06:00:55;;;;;;;6.17;2.20;;;;;;;;;;5051635;28;20536;-76
2023/06/28 06:03:21;;;;;;;2.80;2.47;;;;;;;;;;5070223;28;20430;-75
2023/06/28 06:05:47;;;;;;;3.37;2.80;;;;;;;;;;5070226;28;20437;-75
2023/06/28 06:08:13;;;;;;;5.90;2.50;;;;;;;;;;5068887;28;20449;-75
2023/06/28 06:10:39;;;;;;;2.53;1.90;;;;;;;;;;5067719;28;20437;-73
2023/06/28 06:13:05;;;;;;;6.57;2.67;;;;;;;;;;5069681;28;20523;-74
2023/06/28 06:15:31;;;;;;;5.10;2.20;;;;;;;;;;5070272;28;20672;-75
2023/06/28 06:17:57;;;;;;;2.27;2.10;;;;;;;;;;5069213;28;20439;-74
2023/06/28 06:20:23;;;;;;;5.90;2.27;;;;;;;;;;5069990;28;20418;-73
2023/06/28 06:22:50;;;;;;;1.67;1.67;;;;;;;;;;5066825;28;20452;-69
2023/06/28 06:25:16;;;;;;;5.13;2.90;;;;;;;;;;5068629;28;20524;-72
2023/06/28 06:27:42;;;;;;;2.60;1.70;;;;;;;;;;5062707;28;20536;-68
2023/06/28 06:30:12;;;;;;;10.23;2.27;;;;;;;;;;5069288;28;20469;-69
2023/06/28 06:32:37;;;;;;;2.40;2.30;;;;;;;;;;5069122;28;20824;-71
2023/06/28 06:35:04;;;;;;;6.30;2.30;;;;;;;;;;5069159;28;20890;-71
2023/06/28 06:37:29;;;;;;;1.90;1.70;;;;;;;;;;5049192;28;20470;-69
2023/06/28 06:39:55;;;;;;;2.00;1.87;;;;;;;;;;5066880;28;20520;-66
2023/06/28 06:42:21;;;;;;;5.97;2.97;;;;;;;;;;5049810;28;20433;-70
2023/06/28 06:44:47;;;;;;;4.47;1.97;;;;;;;;;;5068236;28;20832;-73
2023/06/28 06:47:13;;;;;;;7.73;2.07;;;;;;;;;;5068143;28;20625;-72
2023/06/28 06:49:39;;;;;;;2.72;2.40;;;;;;;;;;5079515;28;20433;-71
2023/06/28 06:52:05;;;;;;;2.00;1.63;;;;;;;;;;5088706;28;20275;-72
2023/06/28 06:54:31;;;;;;;4.03;3.60;;;;;;;;;;5087603;28;20441;-72
2023/06/28 06:57:02;;;;;;;2.00;1.80;;;;;;;;;;5083433;28;20536;-73
2023/06/28 06:59:28;;;;;;;4.43;2.30;;;;;;;;;;5087281;28;20496;-73
2023/06/28 07:01:54;;;;;;;2.40;2.13;;;;;;;;;;5087598;28;20424;-72
2023/06/28 07:04:23;;;;;;;5.23;2.67;;;;;;;;;;5084802;28;20437;-69
2023/06/28 07:06:50;;;;;;;2.50;1.67;;;;;;;;;;5083603;28;20536;-72
2023/06/28 07:09:16;;;;;;;1.83;1.73;;;;;;;;;;5085764;28;20848;-72
2023/06/28 07:11:43;;;;;;;1.60;1.60;;;;;;;;;;5089495;28;20963;-72
2023/06/28 07:14:09;;;;;;;3.50;1.83;;;;;;;;;;5088165;28;20791;-73
2023/06/28 07:16:35;;;;;;;6.10;2.00;;;;;;;;;;5086648;28;20792;-72
2023/06/28 07:19:01;;;;;;;1.60;1.60;;;;;;;;;;5088122;28;20405;-72
2023/06/28 07:21:27;;;;;;;12.00;6.87;;;;;;;;;;5073616;28;20441;-69
2023/06/28 07:23:54;;;;;;;5.93;1.90;;;;;;;;;;5086700;28;20429;-69
2023/06/28 07:26:20;;;;;;;3.03;2.07;;;;;;;;;;5087480;28;20417;-70
2023/06/28 07:28:46;;;;;;;2.67;2.53;;;;;;;;;;5087748;28;20433;-70
2023/06/28 07:31:12;;;;;;;2.80;1.90;;;;;;;;;;5089012;28;20559;-70
2023/06/28 07:33:40;;;;;;;5.60;2.00;;;;;;;;;;5090799;28;20472;-69
2023/06/28 07:36:06;;;;;;;3.07;2.77;;;;;;;;;;5091934;28;20447;-70
2023/06/28 07:38:32;;;;;;;5.10;2.50;;;;;;;;;;5085774;28;21124;-70
2023/06/28 07:40:58;;;;;;;3.80;2.43;;;;;;;;;;5092031;28;20504;-70
2023/06/28 07:43:24;;;;;;;2.20;2.17;;;;;;;;;;5088582;28;21258;-70
2023/06/28 07:45:51;;;;;;;2.30;2.10;;;;;;;;;;5092149;28;20439;-70
2023/06/28 07:48:17;;;;;;;2.27;2.17;;;;;;;;;;5083751;28;20953;-70
2023/06/28 07:50:44;;;;;;;3.10;2.33;;;;;;;;;;5073110;28;20436;-69
2023/06/28 07:53:10;;;;;;;7.93;2.10;;;;;;;;;;5070025;28;20449;-70
2023/06/28 07:55:36;;;;;;;5.00;2.27;;;;;;;;;;5072731;28;20431;-69
2023/06/28 07:58:03;;;;;;;2.07;2.07;;;;;;;;;;5052729;28;20890;-70
2023/06/28 08:00:30;;;;;;;3.23;2.30;;;;;;;;;;5069530;28;20445;-70
2023/06/28 08:02:56;;;;;;;5.83;2.00;;;;;;;;;;5068711;28;20625;-70
2023/06/28 08:05:23;;;;;;;5.90;2.50;;;;;;;;;;5071227;28;20885;-70
2023/06/28 08:07:49;;;;;;;6.70;2.33;;;;;;;;;;5070499;28;20428;-70
2023/06/28 08:10:15;;;;;;;10.87;2.60;;;;;;;;;;5061849;28;20470;-69
2023/06/28 08:12:41;;;;;;;4.47;2.93;;;;;;;;;;5059313;28;20485;-70
2023/06/28 08:15:07;;;;;;;3.17;2.13;;;;;;;;;;5064523;28;20487;-69
2023/06/28 08:17:33;;;;;;;2.80;2.07;;;;;;;;;;5070734;28;20474;-69
2023/06/28 08:19:59;;;;;;;9.53;2.60;;;;;;;;;;5070986;28;20429;-69
2023/06/28 08:22:25;;;;;;;3.07;2.33;;;;;;;;;;5070584;28;20436;-69
2023/06/28 08:24:51;;;;;;;7.93;2.97;;;;;;;;;;5067746;28;20444;-69
2023/06/28 08:27:17;;;;;;;4.43;2.33;;;;;;;;;;5069583;28;20440;-69
2023/06/28 08:29:43;;;;;;;4.63;1.83;;;;;;;;;;5071213;28;20421;-69
2023/06/28 08:32:12;;;;;;;2.60;2.40;;;;;;;;;;5068687;28;20480;-70
2023/06/28 08:34:38;;;;;;;4.13;1.90;;;;;;;;;;5068969;28;20909;-69
2023/06/28 08:37:04;;;;;;;4.73;2.13;;;;;;;;;;5070297;28;20500;-69
2023/06/28 08:39:30;;;;;;;2.97;1.83;;;;;;;;;;5070404;28;20471;-69
2023/06/28 08:41:56;;;;;;;2.77;2.10;;;;;;;;;;5070074;28;20445;-69
2023/06/28 08:44:24;;;;;;;4.67;1.83;;;;;;;;;;5071134;28;20457;-69
2023/06/28 08:46:50;;;;;;;3.73;1.97;;;;;;;;;;5069556;28;20441;-72
2023/06/28 08:49:17;;;;;;;2.00;1.30;;;;;;;;;;5070479;28;20884;-71
2023/06/28 08:51:43;;;;;;;3.47;2.50;;;;;;;;;;5069366;28;20834;-71
2023/06/28 08:54:10;;;;;;;2.63;1.70;;;;;;;;;;5070457;28;20426;-72
2023/06/28 08:56:37;;;;;;;7.33;2.50;;;;;;;;;;5070053;28;20425;-72
2023/06/28 08:59:04;;;;;;;8.13;1.87;;;;;;;;;;5070775;28;20915;-72
2023/06/28 09:01:30;;;;;;;4.47;2.70;;;;;;;;;;5070587;28;20433;-72
2023/06/28 09:03:56;;;;;;;4.23;2.37;;;;;;;;;;5070483;28;20413;-72
2023/06/28 09:06:22;;;;;;;3.53;1.87;;;;;;;;;;5064804;28;20452;-72
2023/06/28 09:08:49;;;;;;;1.80;1.50;;;;;;;;;;5069847;28;20429;-72
2023/06/28 09:11:16;;;;;;;2.47;2.23;;;;;;;;;;5070468;28;20473;-72
2023/06/28 09:13:42;;;;;;;4.10;1.70;;;;;;;;;;5069416;28;20976;-71
2023/06/28 09:16:09;;;;;;;3.47;1.87;;;;;;;;;;5068486;28;20453;-72
2023/06/28 09:18:35;;;;;;;2.33;1.70;;;;;;;;;;5070137;28;20964;-72
2023/06/28 09:21:01;;;;;;;3.43;2.00;;;;;;;;;;5052018;28;20418;-72
2023/06/28 09:23:28;;;;;;;2.40;1.83;;;;;;;;;;5069592;28;20421;-71
2023/06/28 09:25:54;;;;;;;1.77;1.70;;;;;;;;;;5062119;28;20437;-72
2023/06/28 09:28:23;;;;;;;3.33;2.60;;;;;;;;;;5065368;28;20444;-72
2023/06/28 09:30:55;;;;;;;4.37;2.20;;;;;;;;;;5068922;28;20431;-71
2023/06/28 09:33:21;;;;;;;2.00;1.90;;;;;;;;;;5069879;28;20449;-71
2023/06/28 09:35:48;;;;;;;5.07;1.70;;;;;;;;;;5068682;28;20433;-71
2023/06/28 09:38:14;;;;;;;5.03;2.60;;;;;;;;;;5069173;28;20463;-72
2023/06/28 09:40:40;;;;;;;4.67;1.53;;;;;;;;;;5068712;28;20414;-71
2023/06/28 09:43:06;;;;;;;4.43;2.10;;;;;;;;;;5069208;28;20472;-72
2023/06/28 09:45:36;;;;;;;6.20;1.90;;;;;;;;;;5067371;28;20446;-72
2023/06/28 09:48:05;;;;;;;9.53;2.30;;;;;;;;;;5065372;28;20477;-72
2023/06/28 09:50:36;;;;;;;4.23;2.23;;;;;;;;;;5069419;28;20894;-72
2023/06/28 09:53:02;;;;;;;2.40;1.70;;;;;;;;;;5068116;28;20507;-71
2023/06/28 09:55:30;;;;;;;3.47;2.07;;;;;;;;;;5069480;28;20453;-69
2023/06/28 09:57:57;;;;;;;2.60;1.70;;;;;;;;;;5068874;28;20413;-69
2023/06/28 10:00:25;;;;;;;6.13;2.27;;;;;;;;;;5069062;28;20513;-69
2023/06/28 10:02:52;;;;;;;8.03;2.07;;;;;;;;;;5067061;28;20992;-69
2023/06/28 10:05:18;;;;;;;9.13;2.30;;;;;;;;;;5069098;28;20421;-69
2023/06/28 10:07:44;;;;;;;3.87;2.73;;;;;;;;;;5068080;28;20433;-69
2023/06/28 10:10:11;;;;;;;9.17;1.97;;;;;;;;;;5069097;28;20428;-69
2023/06/28 10:12:38;;;;;;;3.90;2.10;;;;;;;;;;5069141;28;20583;-69
2023/06/28 10:15:06;;;;;;;2.37;1.80;;;;;;;;;;5068931;28;20425;-69
2023/06/28 10:17:35;;;;;;;1.93;1.80;;;;;;;;;;5050651;28;20875;-69
2023/06/28 10:20:02;;;;;;;1.80;1.70;;;;;;;;;;5069028;28;20535;-70
2023/06/28 10:22:29;;;;;;;3.97;2.27;;;;;;;;;;5068717;28;20422;-69
2023/06/28 10:24:55;;;;;;;1.67;1.57;;;;;;;;;;5066990;28;20928;-69
2023/06/28 10:27:22;;;;;;;2.20;1.93;;;;;;;;;;5050653;28;20445;-69
2023/06/28 10:29:50;;;;;;;13.73;3.30;;;;;;;;;;5068673;28;20425;-69
2023/06/28 10:32:16;;;;;;;3.07;1.70;;;;;;;;;;5067915;28;20918;-69
2023/06/28 10:34:43;;;;;;;36.90;25.13;;;;;;;;;;5067214;28;20761;-72
2023/06/28 10:37:09;;;;;;;5.10;3.33;;;;;;;;;;5068277;28;20422;-71
2023/06/28 10:39:35;;;;;;;2.13;2.03;;;;;;;;;;5068399;28;20516;-72
2023/06/28 10:42:01;;;;;;;1.87;1.70;;;;;;;;;;5068358;28;20524;-72
2023/06/28 10:44:27;;;;;;;3.93;2.10;;;;;;;;;;5068574;28;20448;-71
2023/06/28 10:47:10;;;;;;;3.37;1.63;;;;;;;;;;5068255;28;20414;-71
2023/06/28 10:49:36;;;;;;;3.67;2.20;;;;;;;;;;5068705;28;20457;-72
2023/06/28 10:52:02;;;;;;;2.47;1.53;;;;;;;;;;5067750;28;20477;-71
2023/06/28 10:54:28;;;;;;;3.80;1.20;;;;;;;;;;5048822;28;20445;-72
2023/06/28 10:56:58;;;;;;;3.07;1.60;;;;;;;;;;5068117;28;20425;-72
2023/06/28 10:59:24;;;;;;;4.40;1.93;;;;;;;;;;5067630;28;20449;-72
2023/06/28 11:01:53;;;;;;;2.53;1.60;;;;;;;;;;5068157;28;20425;-71
2023/06/28 11:04:21;;;;;;;2.13;1.60;;;;;;;;;;5067997;28;20793;-72
2023/06/28 11:06:47;;;;;;;1.97;1.43;;;;;;;;;;5067054;28;20918;-72
2023/06/28 11:09:14;;;;;;;3.30;2.23;;;;;;;;;;5067764;28;20421;-72
2023/06/28 11:11:57;;;;;;;4.60;2.77;;;;;;;;;;5068130;28;20584;-72
2023/06/28 11:14:23;;;;;;;1.63;1.53;;;;;;;;;;5067590;28;20448;-71
2023/06/28 11:16:50;;;;;;;3.73;1.47;;;;;;;;;;5067338;28;20540;-71
2023/06/28 11:19:18;;;;;;;2.67;1.77;;;;;;;;;;5068028;28;20441;-71
2023/06/28 11:21:47;;;;;;;2.10;1.40;;;;;;;;;;5068341;28;20417;-71
2023/06/28 11:24:13;;;;;;;3.97;1.10;;;;;;;;;;5066623;28;20578;-72
2023/06/28 11:26:40;;;;;;;2.10;1.73;;;;;;;;;;5067631;28;20965;-71
2023/06/28 11:29:16;;;;;;;1.83;1.73;;;;;;;;;;5049500;28;20469;-71
2023/06/28 11:31:47;;;;;;;2.00;1.43;;;;;;;;;;5066879;28;20534;-72
2023/06/28 11:34:16;;;;;;;3.40;1.77;;;;;;;;;;5068096;28;20426;-71
2023/06/28 11:36:43;;;;;;;6.70;1.83;;;;;;;;;;5058741;28;20449;-71
2023/06/28 11:39:10;;;;;;;7.20;1.90;;;;;;;;;;5066860;28;20433;-71
2023/06/28 11:41:36;;;;;;;2.00;1.83;;;;;;;;;;5066775;28;20437;-72
2023/06/28 11:44:04;;;;;;;1.40;1.30;;;;;;;;;;5067932;28;20421;-71
2023/06/28 11:46:32;;;;;;;1.80;1.53;;;;;;;;;;5066886;28;20425;-71
2023/06/28 11:49:01;;;;;;;1.77;1.67;;;;;;;;;;5066393;28;20468;-71
2023/06/28 11:51:28;;;;;;;1.80;1.67;;;;;;;;;;5048733;28;20468;-72
2023/06/28 11:53:57;;;;;;;3.93;1.83;;;;;;;;;;5067930;28;20524;-72
2023/06/28 11:56:41;;;;;;;1.60;1.50;;;;;;;;;;5067169;28;20517;-72
2023/06/28 11:59:17;;;;;;;1.47;1.37;;;;;;;;;;5067365;28;20439;-72
2023/06/28 12:01:43;;;;;;;1.57;1.50;;;;;;;;;;5066912;28;20978;-71
2023/06/28 12:04:13;;;;;;;2.30;1.50;;;;;;;;;;5049519;28;20425;-72
2023/06/28 12:06:41;;;;;;;5.90;2.10;;;;;;;;;;5067163;28;20559;-71
2023/06/28 12:09:17;;;;;;;1.30;1.30;;;;;;;;;;5066625;28;21123;-71
2023/06/28 12:11:50;;;;;;;9.57;1.97;;;;;;;;;;5066704;28;20475;-71
2023/06/28 12:14:16;;;;;;;3.00;1.57;;;;;;;;;;5065697;28;20475;-72
2023/06/28 12:16:43;;;;;;;3.73;1.90;;;;;;;;;;5066741;28;20420;-72
2023/06/28 12:19:09;;;;;;;2.13;1.80;;;;;;;;;;5070295;28;20451;-72
2023/06/28 12:21:35;;;;;;;1.63;1.53;;;;;;;;;;5071075;28;20810;-71
2023/06/28 12:24:15;;;;;;;4.67;1.50;;;;;;;;;;5052953;28;20429;-71
2023/06/28 12:26:45;;;;;;;1.80;1.60;;;;;;;;;;5070480;28;20421;-71
2023/06/28 12:29:11;;;;;;;1.80;1.70;;;;;;;;;;5070762;28;20512;-71
2023/06/28 12:31:46;;;;;;;1.90;1.60;;;;;;;;;;5071130;28;20572;-72
2023/06/28 12:34:13;;;;;;;3.50;1.90;;;;;;;;;;5070151;28;20429;-71
2023/06/28 12:36:40;;;;;;;3.77;1.93;;;;;;;;;;5070667;28;20997;-71
2023/06/28 12:39:06;;;;;;;1.80;1.70;;;;;;;;;;5069583;28;20538;-71
2023/06/28 12:41:32;;;;;;;3.23;1.67;;;;;;;;;;5064935;28;20441;-72
2023/06/28 12:43:58;;;;;;;6.63;1.83;;;;;;;;;;5068581;28;20479;-71
2023/06/28 12:46:26;;;;;;;1.73;1.63;;;;;;;;;;5070670;28;20786;-72
2023/06/28 12:48:55;;;;;;;2.97;1.77;;;;;;;;;;5070237;28;20457;-71
2023/06/28 12:51:22;;;;;;;2.13;1.90;;;;;;;;;;5070425;28;20461;-71
2023/06/28 12:53:49;;;;;;;1.83;1.73;;;;;;;;;;5070438;28;20479;-72
2023/06/28 12:56:15;;;;;;;4.30;2.23;;;;;;;;;;5070340;28;20414;-72
2023/06/28 12:58:41;;;;;;;5.20;1.40;;;;;;;;;;5070563;28;20793;-72
2023/06/28 13:01:07;;;;;;;4.07;2.13;;;;;;;;;;5068685;28;20433;-72
2023/06/28 13:03:33;;;;;;;2.13;1.70;;;;;;;;;;5070668;28;20513;-72
2023/06/28 13:05:59;;;;;;;2.23;1.83;;;;;;;;;;5070382;28;20417;-71
2023/06/28 13:08:29;;;;;;;5.40;1.80;;;;;;;;;;5070195;28;20483;-71
2023/06/28 13:10:55;;;;;;;2.30;2.10;;;;;;;;;;5069319;28;20530;-71
2023/06/28 13:13:21;;;;;;;1.30;1.30;;;;;;;;;;5070110;28;20426;-71
2023/06/28 13:15:47;;;;;;;1.77;1.70;;;;;;;;;;5069988;28;20406;-71
2023/06/28 13:18:13;;;;;;;5.13;1.90;;;;;;;;;;5070556;28;20421;-72
2023/06/28 13:20:39;;;;;;;1.93;1.30;;;;;;;;;;5069830;28;20232;-71
2023/06/28 13:23:05;;;;;;;5.30;4.03;;;;;;;;;;5069509;28;20441;-71
2023/06/28 13:25:31;;;;;;;2.00;1.80;;;;;;;;;;5052500;28;20187;-72
2023/06/28 13:27:57;;;;;;;4.73;1.50;;;;;;;;;;5068385;28;20500;-71
2023/06/28 13:30:23;;;;;;;1.60;1.60;;;;;;;;;;5068308;28;20453;-71
2023/06/28 13:32:53;;;;;;;10.23;2.00;;;;;;;;;;5068358;28;20546;-71
2023/06/28 13:35:19;;;;;;;3.03;2.00;;;;;;;;;;5070124;28;20460;-71
2023/06/28 13:37:47;;;;;;;2.40;1.70;;;;;;;;;;5069314;28;20452;-71
2023/06/28 13:40:14;;;;;;;1.80;1.70;;;;;;;;;;5068625;28;20414;-71
2023/06/28 13:42:40;;;;;;;4.50;2.97;;;;;;;;;;5066866;28;20465;-71
2023/06/28 13:45:06;;;;;;;1.90;1.33;;;;;;;;;;5069562;28;20425;-71
2023/06/28 13:47:32;;;;;;;2.30;2.10;;;;;;;;;;5069266;28;20417;-71
2023/06/28 13:49:58;;;;;;;5.33;2.10;;;;;;;;;;5069618;28;20454;-71
2023/06/28 13:52:24;;;;;;;1.63;1.30;;;;;;;;;;5067937;28;20854;-71
2023/06/28 13:54:50;;;;;;;1.60;1.47;;;;;;;;;;5069390;28;20424;-72
2023/06/28 13:57:16;;;;;;;2.33;1.60;;;;;;;;;;5069176;28;20778;-72
2023/06/28 13:59:42;;;;;;;1.40;1.30;;;;;;;;;;5069334;28;20494;-71
2023/06/28 14:02:08;;;;;;;8.37;1.90;;;;;;;;;;5068760;28;20439;-72
2023/06/28 14:04:34;;;;;;;4.00;2.13;;;;;;;;;;5068696;28;20437;-72
2023/06/28 14:07:00;;;;;;;1.73;1.73;;;;;;;;;;5068569;28;20426;-71
2023/06/28 14:09:26;;;;;;;1.47;1.23;;;;;;;;;;5069186;28;20420;-72
2023/06/28 14:11:52;;;;;;;1.63;1.47;;;;;;;;;;5051199;28;20844;-71
2023/06/28 14:14:18;;;;;;;2.43;1.20;;;;;;;;;;5069017;28;20417;-71
2023/06/28 14:16:44;;;;;;;8.93;1.50;;;;;;;;;;5067688;28;20959;-72
2023/06/28 14:19:10;;;;;;;1.53;1.43;;;;;;;;;;5069227;28;20412;-71
2023/06/28 14:21:36;;;;;;;5.23;1.67;;;;;;;;;;5068692;28;20948;-71
2023/06/28 14:24:02;;;;;;;2.87;1.37;;;;;;;;;;5068864;28;20456;-71
2023/06/28 14:26:28;;;;;;;7.80;1.70;;;;;;;;;;5049527;28;20457;-71
2023/06/28 14:28:54;;;;;;;2.00;1.53;;;;;;;;;;5068171;28;20476;-72
2023/06/28 14:31:20;;;;;;;7.90;2.60;;;;;;;;;;5068490;28;20460;-71
2023/06/28 14:33:49;;;;;;;2.23;1.43;;;;;;;;;;5068809;28;20429;-71
2023/06/28 14:36:15;;;;;;;6.03;1.80;;;;;;;;;;5067934;28;20413;-71
2023/06/28 14:38:41;;;;;;;7.50;1.43;;;;;;;;;;5068286;28;21000;-72
2023/06/28 14:41:09;;;;;;;3.17;1.50;;;;;;;;;;5067649;28;20429;-72